createdAt,value
2023-05-08T00:01:39.951Z,13.4
2023-05-08T00:03:40.041Z,13.39
2023-05-08T00:05:13.324Z,13.36
2023-05-08T00:07:13.301Z,13.31
2023-05-08T00:09:13.355Z,13.31
2023-05-08T00:11:13.303Z,13.29
2023-05-08T00:13:13.365Z,13.2
2023-05-08T00:15:13.384Z,13.22
2023-05-08T00:17:13.300Z,13.25
2023-05-08T00:20:32.573Z,13.15
2023-05-08T00:22:32.480Z,13.1
2023-05-08T00:24:32.466Z,13.06
2023-05-08T00:26:32.535Z,13.06
2023-05-08T00:28:32.494Z,12.99
2023-05-08T00:30:32.546Z,13
2023-05-08T00:32:32.576Z,13.02
2023-05-08T00:35:51.749Z,12.79
2023-05-08T00:37:51.761Z,12.87
2023-05-08T00:39:51.701Z,12.94
2023-05-08T00:41:51.719Z,12.86
2023-05-08T00:43:51.756Z,12.95
2023-05-08T00:45:51.788Z,12.87
2023-05-08T00:47:51.780Z,12.87
2023-05-08T00:50:20.374Z,12.89
2023-05-08T00:52:20.343Z,12.91
2023-05-08T00:54:20.366Z,12.91
2023-05-08T00:56:20.379Z,12.85
2023-05-08T00:58:20.359Z,12.83
2023-05-08T01:00:20.412Z,12.79
2023-05-08T01:02:20.563Z,12.75
2023-05-08T01:04:20.359Z,12.72
2023-05-08T01:05:25.816Z,12.71
2023-05-08T01:07:25.861Z,12.69
2023-05-08T01:09:25.842Z,12.69
2023-05-08T01:11:25.860Z,12.67
2023-05-08T01:13:25.867Z,12.64
2023-05-08T01:15:25.847Z,12.52
2023-05-08T01:17:25.899Z,12.52
2023-05-08T01:19:25.796Z,12.48
2023-05-08T01:20:34.235Z,12.51
2023-05-08T01:22:34.204Z,12.49
2023-05-08T01:24:34.255Z,12.47
2023-05-08T01:26:34.231Z,12.4
2023-05-08T01:28:34.209Z,12.34
2023-05-08T01:30:34.185Z,12.31
2023-05-08T01:32:34.285Z,12.27
2023-05-08T01:34:34.192Z,12.3
2023-05-08T01:36:26.809Z,12.18
2023-05-08T01:38:26.862Z,12.24
2023-05-08T01:40:26.821Z,12.24
2023-05-08T01:42:26.862Z,12.24
2023-05-08T01:44:26.833Z,11.95
2023-05-08T01:46:26.837Z,11.88
2023-05-08T01:48:26.880Z,11.98
2023-05-08T01:51:16.584Z,11.98
2023-05-08T01:53:16.591Z,11.94
2023-05-08T01:55:16.631Z,12
2023-05-08T01:57:16.589Z,12.05
2023-05-08T01:59:16.551Z,11.79
2023-05-08T02:01:16.666Z,11.76
2023-05-08T02:03:16.668Z,11.88
2023-05-08T02:06:05.699Z,11.9
2023-05-08T02:08:05.649Z,11.93
2023-05-08T02:10:05.703Z,11.89
2023-05-08T02:12:05.694Z,11.86
2023-05-08T02:14:05.920Z,11.86
2023-05-08T02:16:06.004Z,11.86
2023-05-08T02:18:05.669Z,11.84
2023-05-08T02:20:05.669Z,11.82
2023-05-08T02:21:46.616Z,11.75
2023-05-08T02:23:46.505Z,11.78
2023-05-08T02:25:46.546Z,11.78
2023-05-08T02:27:46.512Z,11.76
2023-05-08T02:29:46.537Z,11.79
2023-05-08T02:31:46.534Z,11.76
2023-05-08T02:33:46.486Z,11.75
2023-05-08T02:37:20.355Z,11.67
2023-05-08T02:39:20.362Z,11.63
2023-05-08T02:41:20.341Z,11.61
2023-05-08T02:43:20.275Z,11.52
2023-05-08T02:45:20.311Z,11.53
2023-05-08T02:47:20.306Z,11.6
2023-05-08T02:49:20.338Z,11.64
2023-05-08T02:52:00.344Z,11.64
2023-05-08T02:54:00.249Z,11.64
2023-05-08T02:56:00.241Z,11.64
2023-05-08T02:58:00.296Z,11.61
2023-05-08T03:00:00.389Z,11.6
2023-05-08T03:02:00.215Z,11.61
2023-05-08T03:04:00.391Z,11.62
2023-05-08T03:06:51.139Z,11.57
2023-05-08T03:08:51.215Z,11.59
2023-05-08T03:10:51.188Z,11.61
2023-05-08T03:12:52.263Z,11.63
2023-05-08T03:14:51.208Z,11.67
2023-05-08T03:16:51.124Z,11.68
2023-05-08T03:18:51.172Z,11.75
2023-05-08T03:20:51.155Z,11.67
2023-05-08T03:22:06.174Z,11.54
2023-05-08T03:24:06.185Z,11.68
2023-05-08T03:26:06.174Z,11.7
2023-05-08T03:28:06.186Z,11.76
2023-05-08T03:30:06.208Z,11.92
2023-05-08T03:32:06.181Z,12.13
2023-05-08T03:34:06.194Z,12.87
2023-05-08T03:37:42.433Z,14.66
2023-05-08T03:39:42.405Z,15.71
2023-05-08T03:41:42.300Z,16.41
2023-05-08T03:43:42.544Z,16.43
2023-05-08T03:45:42.378Z,15.23
2023-05-08T03:47:42.491Z,14.35
2023-05-08T03:49:42.310Z,14.66
2023-05-08T03:52:39.702Z,13.74
2023-05-08T03:54:39.808Z,13.67
2023-05-08T03:56:39.727Z,13.61
2023-05-08T03:58:39.904Z,13.74
2023-05-08T04:00:39.880Z,14.03
2023-05-08T04:02:42.091Z,14.31
2023-05-08T04:04:39.786Z,14.46
2023-05-08T04:07:37.763Z,14.7
2023-05-08T04:09:38.021Z,14.85
2023-05-08T04:11:37.752Z,15.3
2023-05-08T04:13:37.697Z,16.24
2023-05-08T04:15:37.772Z,16.52
2023-05-08T04:17:37.808Z,16.25
2023-05-08T04:19:37.746Z,16.21
2023-05-08T04:23:05.317Z,16.07
2023-05-08T04:25:05.270Z,15.96
2023-05-08T04:27:05.231Z,15.92
2023-05-08T04:29:05.301Z,16.42
2023-05-08T04:31:05.511Z,16.59
2023-05-08T04:33:05.304Z,17.46
2023-05-08T04:35:05.323Z,17.41
2023-05-08T04:38:12.015Z,17.26
2023-05-08T04:40:11.977Z,17.36
2023-05-08T04:42:11.960Z,18.34
2023-05-08T04:44:12.045Z,19.06
2023-05-08T04:46:12.115Z,19.61
2023-05-08T04:48:12.089Z,19.22
2023-05-08T04:50:12.066Z,19.37
2023-05-08T04:53:06.083Z,18.58
2023-05-08T04:55:06.058Z,18.99
2023-05-08T04:57:06.045Z,18.17
2023-05-08T04:59:06.059Z,18.7
2023-05-08T05:01:06.050Z,18.37
2023-05-08T05:03:06.084Z,18.25
2023-05-08T05:05:06.122Z,17.74
2023-05-08T05:08:31.640Z,17.63
2023-05-08T05:10:31.655Z,17.16
2023-05-08T05:12:31.621Z,18
2023-05-08T05:14:31.661Z,17.73
2023-05-08T05:16:31.649Z,17.45
2023-05-08T05:18:31.664Z,17.48
2023-05-08T05:20:31.793Z,17.61
2023-05-08T05:24:06.843Z,17.35
2023-05-08T05:26:06.911Z,17.56
2023-05-08T05:28:06.968Z,17.6
2023-05-08T05:30:06.845Z,17.73
2023-05-08T05:32:06.871Z,17.94
2023-05-08T05:34:06.904Z,17.78
2023-05-08T05:36:06.944Z,17.93
2023-05-08T05:39:05.579Z,17.89
2023-05-08T05:41:05.643Z,17.93
2023-05-08T05:43:05.571Z,18.31
2023-05-08T05:45:05.517Z,17.91
2023-05-08T05:47:05.757Z,18.65
2023-05-08T05:49:05.549Z,19.56
2023-05-08T05:51:05.610Z,18.71
2023-05-08T05:53:38.883Z,18.3
2023-05-08T05:55:38.816Z,18.51
2023-05-08T05:57:38.936Z,18.8
2023-05-08T05:59:38.884Z,18.46
2023-05-08T06:01:38.927Z,18.81
2023-05-08T06:03:38.937Z,18.7
2023-05-08T06:05:38.829Z,18.14
2023-05-08T06:07:38.854Z,18.37
2023-05-08T06:09:03.217Z,18.66
2023-05-08T06:11:03.183Z,19.24
2023-05-08T06:13:03.343Z,19.9
2023-05-08T06:15:03.321Z,19.49
2023-05-08T06:17:03.175Z,19.14
2023-05-08T06:19:03.236Z,19.15
2023-05-08T06:21:03.282Z,20.16
2023-05-08T06:24:30.552Z,20.51
2023-05-08T06:26:30.563Z,20.31
2023-05-08T06:28:30.488Z,20.69
2023-05-08T06:30:30.538Z,19.85
2023-05-08T06:32:30.506Z,20.07
2023-05-08T06:34:30.515Z,19.97
2023-05-08T06:36:30.625Z,20.19
2023-05-08T06:40:10.691Z,20.86
2023-05-08T06:41:59.284Z,20.57
2023-05-08T06:43:59.240Z,20.83
2023-05-08T06:45:59.261Z,20.55
2023-05-08T06:47:59.346Z,21.68
2023-05-08T06:49:59.252Z,21.63
2023-05-08T06:51:59.249Z,20.4
2023-05-08T06:55:07.667Z,20.49
2023-05-08T06:57:07.524Z,20.91
2023-05-08T06:59:08.691Z,21.13
2023-05-08T07:01:07.669Z,21.64
2023-05-08T07:03:07.752Z,21.17
2023-05-08T07:05:07.959Z,20.49
2023-05-08T07:07:07.528Z,20.13
2023-05-08T07:10:11.199Z,20.4
2023-05-08T07:12:11.173Z,20.61
2023-05-08T07:14:11.241Z,21.33
2023-05-08T07:16:11.265Z,20.8
2023-05-08T07:18:11.217Z,20.54
2023-05-08T07:20:11.160Z,20.42
2023-05-08T07:22:11.207Z,19.49
2023-05-08T07:24:46.097Z,19.7
2023-05-08T07:26:46.133Z,19.87
2023-05-08T07:28:46.121Z,19.49
2023-05-08T07:30:46.126Z,19.77
2023-05-08T07:32:46.122Z,19.97
2023-05-08T07:34:46.101Z,20.02
2023-05-08T07:36:46.057Z,20.09
2023-05-08T07:39:59.358Z,20.66
2023-05-08T07:41:59.419Z,20.84
2023-05-08T07:43:59.291Z,21
2023-05-08T07:45:59.356Z,20.49
2023-05-08T07:47:59.331Z,20.48
2023-05-08T07:49:59.567Z,20.65
2023-05-08T07:51:59.269Z,21.03
2023-05-08T07:55:33.685Z,21.12
2023-05-08T07:57:33.747Z,21.69
2023-05-08T07:59:33.689Z,21.48
2023-05-08T08:01:33.687Z,21.39
2023-05-08T08:03:33.865Z,21.14
2023-05-08T08:05:33.615Z,21.65
2023-05-08T08:07:33.756Z,21.78
2023-05-08T08:10:33.525Z,22.06
2023-05-08T08:12:33.681Z,21.79
2023-05-08T08:14:33.586Z,21.77
2023-05-08T08:16:33.528Z,21.95
2023-05-08T08:18:33.571Z,21.78
2023-05-08T08:20:33.469Z,21.46
2023-05-08T08:22:33.503Z,21.31
2023-05-08T08:26:01.374Z,21.32
2023-05-08T08:28:01.332Z,21.31
2023-05-08T08:30:15.512Z,21.39
2023-05-08T08:32:01.341Z,21.05
2023-05-08T08:34:01.347Z,21.08
2023-05-08T08:36:01.333Z,21.31
2023-05-08T08:38:01.390Z,21.73
2023-05-08T08:41:05.092Z,21.91
2023-05-08T08:43:05.080Z,21.85
2023-05-08T08:45:05.196Z,21.65
2023-05-08T08:47:05.066Z,21.81
2023-05-08T08:49:05.049Z,21.84
2023-05-08T08:51:05.052Z,21.88
2023-05-08T08:53:05.113Z,21.75
2023-05-08T08:56:38.063Z,21.83
2023-05-08T08:58:39.072Z,21.73
2023-05-08T09:00:38.230Z,21.66
2023-05-08T09:02:38.162Z,21.16
2023-05-08T09:04:38.291Z,21.14
2023-05-08T09:06:38.144Z,21.02
2023-05-08T09:08:38.306Z,21.12
2023-05-08T09:11:09.972Z,21.13
2023-05-08T09:13:10.091Z,21.18
2023-05-08T09:15:10.397Z,21.22
2023-05-08T09:17:10.271Z,21.23
2023-05-08T09:19:10.160Z,21.16
2023-05-08T09:21:09.963Z,21.11
2023-05-08T09:23:09.980Z,21.13
2023-05-08T09:26:07.316Z,21.14
2023-05-08T09:28:07.340Z,21.21
2023-05-08T09:30:07.386Z,21.2
2023-05-08T09:32:07.401Z,21.17
2023-05-08T09:34:07.450Z,21.32
2023-05-08T09:36:07.293Z,21.27
2023-05-08T09:38:07.266Z,21.33
2023-05-08T09:40:07.320Z,21.49
2023-05-08T09:41:46.715Z,21.63
2023-05-08T09:43:46.738Z,21.76
2023-05-08T09:45:46.743Z,21.8
2023-05-08T09:47:46.747Z,21.85
2023-05-08T09:49:46.887Z,21.82
2023-05-08T09:51:46.667Z,21.84
2023-05-08T09:53:46.710Z,21.85
2023-05-08T09:56:22.905Z,22.07
2023-05-08T09:58:22.969Z,22.11
2023-05-08T10:00:22.988Z,22.3
2023-05-08T10:02:22.973Z,22.44
2023-05-08T10:04:22.917Z,22.41
2023-05-08T10:06:23.032Z,22.27
2023-05-08T10:08:23.010Z,22.02
2023-05-08T10:10:23.094Z,21.84
2023-05-08T10:12:16.286Z,22.12
2023-05-08T10:14:16.353Z,22.17
2023-05-08T10:16:16.320Z,22.16
2023-05-08T10:18:16.284Z,22.25
2023-05-08T10:20:16.305Z,21.9
2023-05-08T10:22:16.413Z,22.14
2023-05-08T10:24:16.314Z,22.19
2023-05-08T10:26:57.314Z,22.03
2023-05-08T10:28:47.342Z,21.91
2023-05-08T10:30:47.211Z,21.44
2023-05-08T10:32:47.236Z,21.72
2023-05-08T10:34:47.202Z,21.96
2023-05-08T10:36:47.223Z,22.11
2023-05-08T10:38:47.338Z,21.39
2023-05-08T10:40:47.216Z,21.87
2023-05-08T10:42:34.543Z,22.21
2023-05-08T10:44:34.570Z,22.41
2023-05-08T10:46:34.598Z,21.76
2023-05-08T10:48:34.598Z,21.07
2023-05-08T10:50:34.519Z,20.83
2023-05-08T10:52:34.593Z,21.34
2023-05-08T10:54:34.571Z,22.14
2023-05-08T10:57:21.971Z,22.67
2023-05-08T10:59:22.061Z,22.74
2023-05-08T11:01:21.920Z,22.96
2023-05-08T11:03:31.116Z,23.09
2023-05-08T11:05:21.908Z,22.53
2023-05-08T11:07:21.858Z,22.76
2023-05-08T11:09:21.918Z,22.86
2023-05-08T11:12:19.953Z,22.09
2023-05-08T11:14:20.016Z,22.37
2023-05-08T11:16:19.971Z,23.04
2023-05-08T11:18:19.944Z,22.81
2023-05-08T11:20:20.001Z,22.51
2023-05-08T11:22:19.950Z,22.84
2023-05-08T11:24:19.930Z,23.23
2023-05-08T11:27:24.630Z,22.25
2023-05-08T11:29:24.464Z,21.95
2023-05-08T11:31:24.672Z,22.2
2023-05-08T11:33:24.523Z,22.75
2023-05-08T11:35:24.445Z,22.47
2023-05-08T11:37:24.511Z,22.7
2023-05-08T11:39:24.648Z,22.93
2023-05-08T11:41:24.647Z,23.15
2023-05-08T11:43:13.030Z,23.15
2023-05-08T11:45:13.030Z,22.99
2023-05-08T11:47:13.091Z,22.47
2023-05-08T11:49:13.271Z,22.83
2023-05-08T11:51:12.976Z,23.06
2023-05-08T11:53:12.995Z,22.95
2023-05-08T11:55:13.094Z,22.15
2023-05-08T11:58:10.603Z,22.55
2023-05-08T12:00:10.833Z,22.58
2023-05-08T12:02:10.744Z,22.77
2023-05-08T12:04:10.834Z,22.95
2023-05-08T12:06:10.666Z,22.99
2023-05-08T12:08:10.611Z,24.09
2023-05-08T12:10:10.758Z,24.46
2023-05-08T12:13:03.123Z,24.93
2023-05-08T12:15:03.081Z,24.42
2023-05-08T12:17:03.301Z,24.95
2023-05-08T12:19:03.064Z,25.18
2023-05-08T12:21:03.071Z,25.52
2023-05-08T12:23:03.096Z,25.6
2023-05-08T12:25:03.077Z,25.71
2023-05-08T12:28:55.977Z,26.14
2023-05-08T12:30:55.638Z,26.32
2023-05-08T12:32:55.717Z,26.08
2023-05-08T12:34:55.772Z,24.79
2023-05-08T12:36:55.656Z,24.86
2023-05-08T12:38:55.657Z,24.82
2023-05-08T12:40:55.612Z,24.85
2023-05-08T12:43:45.632Z,24.75
2023-05-08T12:45:45.664Z,24.88
2023-05-08T12:47:45.703Z,25.12
2023-05-08T12:49:46.083Z,25.48
2023-05-08T12:51:45.654Z,25.48
2023-05-08T12:53:45.665Z,25.35
2023-05-08T12:55:45.666Z,24.84
2023-05-08T12:58:30.337Z,24.35
2023-05-08T13:00:30.406Z,24.4
2023-05-08T13:02:30.669Z,24.03
2023-05-08T13:04:30.421Z,24.05
2023-05-08T13:06:30.464Z,24.22
2023-05-08T13:15:45.671Z,23.48
2023-05-08T13:17:45.647Z,23.32
2023-05-08T13:19:45.615Z,23.24
2023-05-08T13:21:45.811Z,23.31
2023-05-08T13:23:45.697Z,23.37
2023-05-08T13:25:45.609Z,23.37
2023-05-08T13:28:56.687Z,23
2023-05-08T13:30:56.110Z,22.71
2023-05-08T13:32:56.171Z,22.7
2023-05-08T13:34:58.784Z,22.7
2023-05-08T13:36:56.323Z,22.6
2023-05-08T13:38:56.127Z,22.55
2023-05-08T13:40:56.126Z,22.45
2023-05-08T13:44:45.102Z,22.2
2023-05-08T13:46:45.137Z,22.07
2023-05-08T13:48:45.091Z,21.85
2023-05-08T13:50:45.117Z,21.9
2023-05-08T13:52:45.203Z,21.79
2023-05-08T13:54:45.107Z,21.43
2023-05-08T13:56:45.125Z,21.28
2023-05-08T13:59:52.720Z,20.67
2023-05-08T14:01:52.780Z,20.77
2023-05-08T14:03:52.787Z,21
2023-05-08T14:05:52.704Z,20.88
2023-05-08T14:07:52.906Z,20.46
2023-05-08T14:09:52.739Z,20.46
2023-05-08T14:11:53.038Z,20.92
2023-05-08T14:14:36.004Z,21.02
2023-05-08T14:16:36.050Z,20.62
2023-05-08T14:18:36.088Z,20.41
2023-05-08T14:20:35.991Z,20.29
2023-05-08T14:22:36.101Z,19.97
2023-05-08T14:24:36.140Z,19.65
2023-05-08T14:26:35.970Z,18.53
2023-05-08T14:29:57.431Z,19.54
2023-05-08T14:31:57.649Z,19.75
2023-05-08T14:33:57.543Z,20.05
2023-05-08T14:35:57.633Z,19.95
2023-05-08T14:37:57.517Z,19.64
2023-05-08T14:39:57.757Z,19.64
2023-05-08T14:42:18.045Z,19.59
2023-05-08T14:45:31.697Z,20.04
2023-05-08T14:47:31.681Z,19.75
2023-05-08T14:49:37.243Z,19.8
2023-05-08T14:51:31.669Z,19.57
2023-05-08T14:53:31.807Z,19.15
2023-05-08T14:55:32.083Z,19.13
2023-05-08T14:57:31.651Z,18.66
2023-05-08T15:00:34.552Z,18.88
2023-05-08T15:02:34.609Z,18.59
2023-05-08T15:04:34.571Z,18.45
2023-05-08T15:06:34.529Z,18.59
2023-05-08T15:08:34.655Z,19.1
2023-05-08T15:10:34.757Z,19.38
2023-05-08T15:12:34.556Z,19.44
2023-05-08T15:15:36.664Z,18.51
2023-05-08T15:17:36.716Z,18.7
2023-05-08T15:19:36.690Z,18.84
2023-05-08T15:21:36.669Z,18.94
2023-05-08T15:23:36.616Z,19.14
2023-05-08T15:25:36.620Z,19.21
2023-05-08T15:27:36.964Z,18.85
2023-05-08T15:30:27.982Z,19.05
2023-05-08T15:32:27.919Z,19.09
2023-05-08T15:34:32.291Z,18.91
2023-05-08T15:36:28.480Z,18.84
2023-05-08T15:38:27.902Z,18.94
2023-05-08T15:40:28.018Z,18.56
2023-05-08T15:42:27.941Z,18.17
2023-05-08T15:45:25.776Z,17.85
2023-05-08T15:47:25.868Z,17.99
2023-05-08T15:49:25.574Z,18.23
2023-05-08T15:51:25.758Z,18.1
2023-05-08T15:53:25.833Z,18.14
2023-05-08T15:55:25.584Z,18.13
2023-05-08T15:57:25.549Z,17.74
2023-05-08T15:59:25.597Z,17.71
2023-05-08T16:00:45.428Z,17.91
2023-05-08T16:02:43.420Z,18.07
2023-05-08T16:04:43.359Z,18.1
2023-05-08T16:06:43.481Z,18.24
2023-05-08T16:08:43.303Z,17.85
2023-05-08T16:10:43.653Z,17.91
2023-05-08T16:12:43.319Z,17.95
2023-05-08T16:15:43.819Z,17.9
2023-05-08T16:17:43.804Z,18.15
2023-05-08T16:19:43.738Z,18.34
2023-05-08T16:21:43.750Z,18.31
2023-05-08T16:23:43.657Z,18.39
2023-05-08T16:25:43.794Z,18.36
2023-05-08T16:27:43.696Z,18.39
2023-05-08T16:29:43.765Z,18.29
2023-05-08T16:31:34.050Z,18.21
2023-05-08T16:33:33.911Z,18.21
2023-05-08T16:35:34.028Z,18.12
2023-05-08T16:37:34.035Z,18.13
2023-05-08T16:39:33.796Z,18.26
2023-05-08T16:41:33.853Z,18.35
2023-05-08T16:43:33.831Z,18.44
2023-05-08T16:46:13.904Z,18.38
2023-05-08T16:48:14.038Z,18.44
2023-05-08T16:50:14.059Z,17.99
2023-05-08T16:52:13.910Z,18.06
2023-05-08T16:54:13.887Z,17.81
2023-05-08T16:56:14.023Z,17.97
2023-05-08T16:58:13.938Z,18.1
2023-05-08T17:01:55.330Z,18.12
2023-05-08T17:03:55.036Z,17.99
2023-05-08T17:05:55.066Z,18
2023-05-08T17:07:55.114Z,17.81
2023-05-08T17:09:55.193Z,17.93
2023-05-08T17:11:55.123Z,17.93
2023-05-08T17:13:55.016Z,17.81
2023-05-08T17:16:26.887Z,17.73
2023-05-08T17:18:26.834Z,17.66
2023-05-08T17:20:26.949Z,17.62
2023-05-08T17:22:26.936Z,17.62
2023-05-08T17:24:26.859Z,17.57
2023-05-08T17:26:26.859Z,17.51
2023-05-08T17:28:26.783Z,17.42
2023-05-08T17:31:46.886Z,17.19
2023-05-08T17:33:46.797Z,17.19
2023-05-08T17:35:46.791Z,17.18
2023-05-08T17:37:46.928Z,17.13
2023-05-08T17:39:46.818Z,17.08
2023-05-08T17:41:46.856Z,17.04
2023-05-08T17:43:46.833Z,16.98
2023-05-08T17:47:29.405Z,16.79
2023-05-08T17:49:29.339Z,16.81
2023-05-08T17:51:29.350Z,16.77
2023-05-08T17:53:29.515Z,16.98
2023-05-08T17:55:29.352Z,16.88
2023-05-08T17:57:29.347Z,16.88
2023-05-08T17:59:29.402Z,16.94
2023-05-08T18:02:04.116Z,16.93
2023-05-08T18:04:04.181Z,16.98
2023-05-08T18:06:04.228Z,16.96
2023-05-08T18:08:04.195Z,16.98
2023-05-08T18:10:04.293Z,16.87
2023-05-08T18:12:04.081Z,16.66
2023-05-08T18:14:04.182Z,16.78
2023-05-08T18:16:56.880Z,16.78
2023-05-08T18:18:57.006Z,16.81
2023-05-08T18:20:57.139Z,16.84
2023-05-08T18:22:56.692Z,16.62
2023-05-08T18:24:56.689Z,16.28
2023-05-08T18:26:56.763Z,15.82
2023-05-08T18:28:56.701Z,15.97
2023-05-08T18:30:56.767Z,16.07
2023-05-08T18:33:01.855Z,16.08
2023-05-08T18:35:01.857Z,16.12
2023-05-08T18:37:01.861Z,16.08
2023-05-08T18:39:01.818Z,16
2023-05-08T18:41:02.035Z,16.01
2023-05-08T18:43:02.015Z,16.23
2023-05-08T18:45:01.897Z,16.44
2023-05-08T18:47:16.739Z,16.52
2023-05-08T18:49:16.684Z,16.56
2023-05-08T18:51:16.710Z,16.56
2023-05-08T18:53:16.701Z,16.53
2023-05-08T18:55:16.810Z,16.55
2023-05-08T18:57:16.691Z,16.6
2023-05-08T18:59:16.798Z,16.58
2023-05-08T19:01:16.804Z,16.48
2023-05-08T19:02:41.535Z,16.43
2023-05-08T19:04:41.532Z,16.47
2023-05-08T19:06:41.501Z,16.43
2023-05-08T19:08:41.510Z,16.38
2023-05-08T19:10:41.563Z,16.36
2023-05-08T19:12:41.537Z,16.36
2023-05-08T19:14:41.850Z,16.36
2023-05-08T19:18:05.541Z,16.3
2023-05-08T19:20:05.555Z,16.3
2023-05-08T19:22:05.470Z,16.17
2023-05-08T19:24:05.735Z,16.1
2023-05-08T19:26:05.429Z,16.12
2023-05-08T19:28:05.510Z,16.26
2023-05-08T19:30:05.953Z,16.2
2023-05-08T19:33:15.490Z,15.97
2023-05-08T19:35:15.559Z,16.08
2023-05-08T19:37:15.579Z,16.21
2023-05-08T19:39:15.491Z,16.22
2023-05-08T19:41:15.499Z,16.21
2023-05-08T19:43:15.479Z,16.25
2023-05-08T19:45:15.609Z,16.25
2023-05-08T19:48:51.231Z,16.25
2023-05-08T19:50:54.572Z,16.26
2023-05-08T19:52:51.429Z,16.13
2023-05-08T19:54:51.231Z,16.05
2023-05-08T19:56:51.383Z,16.03
2023-05-08T19:58:51.249Z,16.12
2023-05-08T20:00:52.010Z,16.07
2023-05-08T20:03:49.605Z,15.97
2023-05-08T20:05:49.614Z,16.14
2023-05-08T20:07:49.548Z,16
2023-05-08T20:09:49.610Z,16.02
2023-05-08T20:11:49.550Z,16.01
2023-05-08T20:13:49.591Z,15.95
2023-05-08T20:15:49.543Z,15.93
2023-05-08T20:18:39.979Z,15.96
2023-05-08T20:20:39.906Z,15.89
2023-05-08T20:22:39.919Z,15.92
2023-05-08T20:24:39.841Z,15.83
2023-05-08T20:26:39.883Z,15.86
2023-05-08T20:28:39.888Z,15.84
2023-05-08T20:30:39.874Z,15.79
2023-05-08T20:33:43.951Z,15.77
2023-05-08T20:35:43.838Z,15.77
2023-05-08T20:37:43.810Z,15.62
2023-05-08T20:39:43.851Z,15.51
2023-05-08T20:41:43.819Z,15.47
2023-05-08T20:43:43.890Z,15.52
2023-05-08T20:45:43.873Z,15.59
2023-05-08T20:49:06.067Z,15.59
2023-05-08T20:51:06.004Z,15.68
2023-05-08T20:53:05.873Z,15.68
2023-05-08T20:55:05.929Z,15.61
2023-05-08T20:57:05.865Z,15.56
2023-05-08T20:59:05.891Z,15.53
2023-05-08T21:01:06.115Z,15.52
2023-05-08T21:04:31.519Z,15.51
2023-05-08T21:06:31.377Z,15.44
2023-05-08T21:08:31.457Z,15.49
2023-05-08T21:10:31.453Z,15.47
2023-05-08T21:12:31.314Z,15.35
2023-05-08T21:14:31.574Z,15.27
2023-05-08T21:16:31.674Z,15.39
2023-05-08T21:19:43.158Z,15.28
2023-05-08T21:21:43.211Z,15.34
2023-05-08T21:23:43.046Z,15.37
2023-05-08T21:25:43.049Z,15.34
2023-05-08T21:27:43.105Z,15.37
2023-05-08T21:29:45.310Z,15.37
2023-05-08T21:31:43.141Z,15.32
2023-05-08T21:34:12.998Z,15.29
2023-05-08T21:36:13.129Z,15.35
2023-05-08T21:38:13.067Z,15.35
2023-05-08T21:40:13.023Z,15.4
2023-05-08T21:42:13.053Z,15.32
2023-05-08T21:44:13.073Z,15.3
2023-05-08T21:46:13.000Z,15.34
2023-05-08T21:48:13.004Z,15.31
2023-05-08T21:49:40.588Z,15.31
2023-05-08T21:51:40.849Z,15.34
2023-05-08T21:53:40.609Z,15.28
2023-05-08T21:55:40.711Z,15.2
2023-05-08T21:57:40.542Z,15.18
2023-05-08T21:59:40.594Z,15.12
2023-05-08T22:01:40.547Z,15.17
2023-05-08T22:04:48.599Z,15.05
2023-05-08T22:06:48.626Z,15.03
2023-05-08T22:08:48.535Z,14.93
2023-05-08T22:10:48.547Z,14.98
2023-05-08T22:12:48.509Z,14.95
2023-05-08T22:14:48.552Z,14.89
2023-05-08T22:16:48.496Z,14.9
2023-05-08T22:20:35.420Z,14.83
2023-05-08T22:22:35.571Z,14.75
2023-05-08T22:24:35.416Z,14.74
2023-05-08T22:26:35.357Z,14.72
2023-05-08T22:28:35.392Z,14.73
2023-05-08T22:30:35.401Z,14.54
2023-05-08T22:32:35.445Z,14.61
2023-05-08T22:35:02.585Z,14.67
2023-05-08T22:37:02.567Z,14.62
2023-05-08T22:39:02.688Z,14.59
2023-05-08T22:41:02.776Z,14.58
2023-05-08T22:43:02.536Z,14.51
2023-05-08T22:45:02.586Z,14.52
2023-05-08T22:47:02.657Z,14.51
2023-05-08T22:50:26.345Z,14.47
2023-05-08T22:52:26.314Z,14.51
2023-05-08T22:54:26.466Z,14.56
2023-05-08T22:56:26.283Z,14.5
2023-05-08T22:58:26.327Z,14.5
2023-05-08T23:00:26.306Z,14.51
2023-05-08T23:02:26.265Z,14.56
2023-05-08T23:05:46.838Z,14.56
2023-05-08T23:07:46.787Z,14.45
2023-05-08T23:09:46.910Z,14.43
2023-05-08T23:11:46.834Z,14.35
2023-05-08T23:13:46.788Z,14.35
2023-05-08T23:15:46.827Z,14.46
2023-05-08T23:17:46.805Z,14.53
2023-05-08T23:20:29.669Z,14.6
2023-05-08T23:22:29.359Z,14.6
2023-05-08T23:24:29.434Z,14.56
2023-05-08T23:26:29.438Z,14.56
2023-05-08T23:28:29.415Z,14.3
2023-05-08T23:30:29.314Z,14.43
2023-05-08T23:32:29.403Z,14.51
2023-05-08T23:34:29.306Z,14.48
2023-05-08T23:36:18.472Z,14.47
2023-05-08T23:38:18.611Z,14.38
2023-05-08T23:40:18.479Z,14.45
2023-05-08T23:42:18.623Z,14.56
2023-05-08T23:44:18.524Z,14.6
2023-05-08T23:46:18.487Z,14.59
2023-05-08T23:48:18.466Z,14.55
2023-05-08T23:51:03.898Z,14.58
2023-05-08T23:53:03.908Z,14.52
2023-05-08T23:55:03.884Z,14.39
2023-05-08T23:57:03.911Z,14.36
2023-05-08T23:59:04.062Z,14.32
